Time;durP1;ratioP1;P1;durP2;ratioP2;P2;SDS_P1;SDS_P2;PMS_P1;PMS_P2;Temp;Humidity;BMP_temperature;BMP_pressure;BME280_temperature;BME280_humidity;BME280_pressure;Samples;Min_cycle;Max_cycle;Signal;HPM_P1;HPM_P2
2022/04/29 00:01:59;;;;;;;9.18;2.30;;;9.20;99.90;;;;;;5071942;28;20462;-78
2022/04/29 00:04:25;;;;;;;7.70;2.25;;;9.20;99.90;;;;;;5089075;28;20398;-78
2022/04/29 00:06:51;;;;;;;8.02;2.20;;;9.10;99.90;;;;;;5089207;28;20406;-78
2022/04/29 00:09:17;;;;;;;7.50;2.13;;;9.10;99.90;;;;;;5087745;28;20394;-78
2022/04/29 00:11:43;;;;;;;6.68;2.10;;;9.10;99.90;;;;;;5071104;28;20934;-78
2022/04/29 00:14:10;;;;;;;9.85;2.25;;;9.00;99.90;;;;;;5088672;28;20445;-78
2022/04/29 00:16:35;;;;;;;7.13;2.00;;;9.00;99.90;;;;;;5070263;28;21261;-78
2022/04/29 00:19:01;;;;;;;8.55;2.00;;;9.00;99.90;;;;;;5089020;28;20527;-78
2022/04/29 00:21:26;;;;;;;6.97;2.03;;;9.00;99.90;;;;;;5088914;28;20395;-78
2022/04/29 00:23:52;;;;;;;8.43;2.37;;;9.00;99.90;;;;;;5089176;28;20451;-78
2022/04/29 00:26:18;;;;;;;7.15;2.22;;;9.00;99.90;;;;;;5089009;28;20408;-78
2022/04/29 00:28:43;;;;;;;9.30;2.17;;;9.00;99.90;;;;;;5089787;28;20481;-78
2022/04/29 00:31:09;;;;;;;7.80;1.60;;;9.00;99.90;;;;;;5083526;28;20434;-78
2022/04/29 00:33:34;;;;;;;7.43;2.00;;;9.00;99.90;;;;;;5006952;28;20864;-78
2022/04/29 00:36:00;;;;;;;7.70;2.17;;;9.00;99.90;;;;;;5005287;28;20516;-77
2022/04/29 00:38:26;;;;;;;8.23;2.25;;;9.00;99.90;;;;;;5005148;28;20945;-78
2022/04/29 00:40:51;;;;;;;6.07;1.80;;;9.00;99.90;;;;;;5006939;28;20482;-78
2022/04/29 00:43:17;;;;;;;6.68;2.05;;;9.00;99.90;;;;;;5005305;28;20401;-78
2022/04/29 00:45:42;;;;;;;6.97;1.90;;;9.00;99.90;;;;;;5005161;28;21281;-78
2022/04/29 00:48:08;;;;;;;8.35;2.20;;;9.00;99.90;;;;;;5004879;28;20417;-78
2022/04/29 00:50:35;;;;;;;5.68;1.73;;;9.00;99.90;;;;;;5006806;28;20409;-78
2022/04/29 00:53:02;;;;;;;5.30;1.75;;;9.00;99.90;;;;;;5005325;28;20462;-78
2022/04/29 00:55:29;;;;;;;6.20;1.92;;;8.90;99.90;;;;;;5004487;28;20409;-78
2022/04/29 00:58:07;;;;;;;9.55;2.40;;;8.90;99.90;;;;;;5006314;28;20432;-78
2022/04/29 01:00:33;;;;;;;7.38;1.92;;;8.90;99.90;;;;;;5005112;28;20481;-78
2022/04/29 01:03:00;;;;;;;7.45;1.80;;;8.90;99.90;;;;;;5006354;28;20402;-77
2022/04/29 01:05:26;;;;;;;8.52;1.58;;;8.90;99.90;;;;;;5006690;28;20413;-78
2022/04/29 01:07:53;;;;;;;8.55;1.65;;;8.80;99.90;;;;;;4988853;28;20921;-78
2022/04/29 01:10:20;;;;;;;5.00;1.58;;;8.90;99.90;;;;;;5006227;28;20405;-78
2022/04/29 01:12:55;;;;;;;9.15;1.45;;;8.80;99.90;;;;;;5004659;28;20396;-78
2022/04/29 01:15:21;;;;;;;6.70;1.75;;;8.80;99.90;;;;;;5006075;28;20493;-78
2022/04/29 01:17:51;;;;;;;6.35;1.52;;;8.80;99.90;;;;;;5108062;27;20470;-78
2022/04/29 01:20:19;;;;;;;7.22;1.70;;;8.70;99.90;;;;;;5004717;28;20413;-78
2022/04/29 01:22:45;;;;;;;5.95;1.60;;;8.70;99.90;;;;;;5005766;28;20401;-78
2022/04/29 01:25:12;;;;;;;5.57;1.63;;;8.70;99.90;;;;;;5004685;28;20428;-78
2022/04/29 01:27:38;;;;;;;9.77;1.90;;;8.70;99.90;;;;;;5005765;28;20413;-78
2022/04/29 01:30:10;;;;;;;6.15;1.70;;;8.70;99.90;;;;;;5004867;28;20410;-78
2022/04/29 01:32:39;;;;;;;6.47;1.50;;;8.60;99.90;;;;;;5060037;28;20398;-78
2022/04/29 01:35:05;;;;;;;6.13;1.80;;;8.60;99.90;;;;;;5086876;28;20417;-78
2022/04/29 01:37:31;;;;;;;5.63;1.95;;;8.60;99.90;;;;;;5088697;28;20422;-78
2022/04/29 01:39:57;;;;;;;5.72;1.45;;;8.60;99.90;;;;;;5087042;28;20845;-78
2022/04/29 01:42:23;;;;;;;6.50;1.63;;;8.60;99.90;;;;;;5087006;28;20412;-78
2022/04/29 01:44:49;;;;;;;6.15;1.90;;;8.60;99.90;;;;;;5104296;28;20481;-78
2022/04/29 01:47:15;;;;;;;6.32;1.80;;;8.60;99.90;;;;;;5088278;28;20402;-78
2022/04/29 01:49:41;;;;;;;7.07;1.95;;;8.60;99.90;;;;;;5086603;28;20463;-78
2022/04/29 01:52:08;;;;;;;5.93;1.85;;;8.50;99.90;;;;;;5088242;28;20433;-78
2022/04/29 01:54:35;;;;;;;7.90;2.20;;;8.50;99.90;;;;;;5085929;28;20418;-78
2022/04/29 01:57:01;;;;;;;7.68;2.10;;;8.50;99.90;;;;;;5085729;28;20402;-78
2022/04/29 01:59:30;;;;;;;6.23;1.97;;;8.50;99.90;;;;;;5087185;28;20436;-78
2022/04/29 02:01:57;;;;;;;6.82;1.90;;;8.50;99.90;;;;;;5069136;28;20402;-78
2022/04/29 02:04:23;;;;;;;6.80;2.10;;;8.50;99.90;;;;;;5085993;28;20417;-78
2022/04/29 02:06:49;;;;;;;7.80;2.00;;;8.50;99.90;;;;;;5085864;28;20497;-78
2022/04/29 02:09:14;;;;;;;7.80;2.05;;;8.50;99.90;;;;;;5085669;28;20409;-78
2022/04/29 02:11:40;;;;;;;6.80;2.00;;;8.50;99.90;;;;;;5085711;28;20751;-77
2022/04/29 02:14:05;;;;;;;5.70;1.88;;;8.50;99.90;;;;;;5085771;28;20493;-78
2022/04/29 02:16:31;;;;;;;5.93;1.63;;;8.50;99.90;;;;;;5086449;28;20405;-78
2022/04/29 02:18:57;;;;;;;5.45;1.85;;;8.50;99.90;;;;;;5087352;28;20440;-78
2022/04/29 02:21:22;;;;;;;9.30;2.30;;;8.50;99.90;;;;;;5086892;28;21002;-78
2022/04/29 02:23:48;;;;;;;8.82;2.00;;;8.40;99.90;;;;;;5086498;28;20413;-78
2022/04/29 02:26:14;;;;;;;10.23;2.10;;;8.50;99.90;;;;;;5069634;28;20410;-78
2022/04/29 02:28:39;;;;;;;6.97;1.88;;;8.40;99.90;;;;;;5069864;28;20931;-78
2022/04/29 02:31:05;;;;;;;6.13;1.97;;;8.40;99.90;;;;;;5083823;28;20503;-78
2022/04/29 02:33:31;;;;;;;5.63;1.90;;;8.40;99.90;;;;;;5004999;28;20493;-78
2022/04/29 02:35:57;;;;;;;7.75;2.20;;;8.40;99.90;;;;;;5005026;28;20412;-78
2022/04/29 02:38:22;;;;;;;7.35;1.98;;;8.40;99.90;;;;;;5005030;28;21226;-78
2022/04/29 02:40:51;;;;;;;7.40;2.40;;;8.40;99.90;;;;;;5016734;28;20414;-77
2022/04/29 02:43:17;;;;;;;7.05;2.10;;;8.40;99.90;;;;;;5087156;28;20524;-78
2022/04/29 02:45:43;;;;;;;6.35;2.30;;;8.40;99.90;;;;;;5065931;28;20410;-78
2022/04/29 02:48:09;;;;;;;8.85;2.13;;;8.40;99.90;;;;;;4985593;28;20421;-78
2022/04/29 02:50:35;;;;;;;6.67;2.00;;;8.40;99.90;;;;;;5031783;28;20536;-77
2022/04/29 02:53:01;;;;;;;6.37;2.10;;;8.40;99.90;;;;;;5086518;28;20555;-78
2022/04/29 02:55:27;;;;;;;7.53;2.20;;;8.40;99.90;;;;;;5087309;28;20397;-78
2022/04/29 02:57:52;;;;;;;6.13;2.17;;;8.40;99.90;;;;;;5087422;28;20398;-78
2022/04/29 03:00:18;;;;;;;9.40;2.50;;;8.30;99.90;;;;;;4990638;28;20990;-78
2022/04/29 03:02:44;;;;;;;10.15;2.88;;;8.30;99.90;;;;;;4985341;28;20928;-78
2022/04/29 03:05:10;;;;;;;6.33;2.20;;;8.30;99.90;;;;;;4967368;28;20407;-78
2022/04/29 03:07:35;;;;;;;5.90;2.10;;;8.30;99.90;;;;;;4986940;28;20998;-78
2022/04/29 03:10:01;;;;;;;6.55;2.55;;;8.20;99.90;;;;;;4988431;28;20822;-78
2022/04/29 03:12:26;;;;;;;6.00;2.23;;;8.20;99.90;;;;;;4987326;28;20418;-78
2022/04/29 03:14:52;;;;;;;7.72;2.40;;;8.20;99.90;;;;;;4987808;28;20757;-78
2022/04/29 03:20:04;;;;;;;6.65;2.58;;;8.20;99.90;;;;;;5111329;27;20434;-77
2022/04/29 03:22:29;;;;;;;7.88;2.75;;;8.10;99.90;;;;;;5048762;28;20413;-78
2022/04/29 03:24:55;;;;;;;5.75;2.40;;;8.10;99.90;;;;;;5006536;28;20421;-78
2022/04/29 03:27:21;;;;;;;7.10;2.30;;;8.10;99.90;;;;;;5050541;28;20401;-78
2022/04/29 03:29:47;;;;;;;9.35;2.83;;;8.10;99.90;;;;;;5090933;28;20394;-78
2022/04/29 03:32:13;;;;;;;7.15;2.60;;;8.10;99.90;;;;;;5090960;28;20477;-78
2022/04/29 03:34:39;;;;;;;8.15;2.60;;;8.10;99.90;;;;;;5071918;28;20506;-78
2022/04/29 03:37:05;;;;;;;10.05;2.58;;;8.10;99.90;;;;;;5007778;28;20889;-78
2022/04/29 03:39:30;;;;;;;7.68;2.80;;;8.10;99.90;;;;;;4989819;28;20494;-78
2022/04/29 03:41:56;;;;;;;6.60;2.60;;;8.10;99.90;;;;;;5007436;28;20642;-78
2022/04/29 03:44:22;;;;;;;8.40;2.55;;;8.20;99.90;;;;;;5006156;28;20487;-78
2022/04/29 03:46:48;;;;;;;10.73;3.30;;;8.20;99.90;;;;;;5007535;28;20401;-78
2022/04/29 03:51:58;;;;;;;6.17;2.60;;;8.30;99.90;;;;;;5033589;28;20410;-78
2022/04/29 03:54:23;;;;;;;7.28;2.50;;;8.30;99.90;;;;;;5090499;28;20498;-78
2022/04/29 03:56:49;;;;;;;7.47;2.45;;;8.30;99.90;;;;;;5061847;28;20791;-78
2022/04/29 03:59:14;;;;;;;10.37;2.80;;;8.30;99.90;;;;;;5040010;28;20425;-78
2022/04/29 04:01:42;;;;;;;7.00;2.83;;;8.40;99.90;;;;;;5066188;28;21150;-78
2022/04/29 04:04:07;;;;;;;6.50;2.40;;;8.30;99.90;;;;;;5088977;28;20402;-78
2022/04/29 04:07:07;;;;;;;9.18;3.10;;;8.40;99.90;;;;;;5007576;28;20406;-78
2022/04/29 04:09:25;;;;;;;7.80;2.70;;;8.40;99.90;;;;;;5009658;28;20425;-78
2022/04/29 04:11:51;;;;;;;8.87;3.07;;;8.40;99.90;;;;;;5005694;28;20419;-78
2022/04/29 04:14:18;;;;;;;7.18;2.72;;;8.40;99.90;;;;;;5060734;28;20441;-78
2022/04/29 04:16:47;;;;;;;7.47;2.80;;;8.40;99.90;;;;;;5090229;28;20816;-78
2022/04/29 04:19:13;;;;;;;6.78;2.70;;;8.40;99.90;;;;;;5089138;28;20506;-78
2022/04/29 04:21:42;;;;;;;7.55;2.85;;;8.40;99.90;;;;;;5088617;28;20409;-78
2022/04/29 04:24:08;;;;;;;5.70;2.58;;;8.40;99.90;;;;;;5088416;28;20903;-78
2022/04/29 04:26:34;;;;;;;4.70;2.60;;;8.50;99.90;;;;;;5088001;28;20487;-78
2022/04/29 04:29:00;;;;;;;9.10;2.60;;;8.50;99.90;;;;;;5089719;28;20438;-78
2022/04/29 04:31:26;;;;;;;7.43;2.55;;;8.50;99.90;;;;;;5032618;28;20944;-78
2022/04/29 04:33:52;;;;;;;8.02;2.53;;;8.50;99.90;;;;;;5006859;28;20520;-78
2022/04/29 04:36:18;;;;;;;6.97;2.43;;;8.50;99.90;;;;;;5005449;28;20450;-78
2022/04/29 04:38:45;;;;;;;6.03;2.77;;;8.60;99.90;;;;;;5004932;28;20448;-78
2022/04/29 04:41:13;;;;;;;5.85;2.63;;;8.50;99.90;;;;;;5006503;28;20409;-78
2022/04/29 04:43:38;;;;;;;9.27;2.38;;;8.60;99.90;;;;;;5005204;28;20417;-78
2022/04/29 04:46:06;;;;;;;6.68;2.30;;;8.60;99.90;;;;;;5005644;28;20416;-78
2022/04/29 04:48:32;;;;;;;6.53;2.60;;;8.50;99.90;;;;;;5006546;28;20893;-78
2022/04/29 04:51:01;;;;;;;7.38;2.70;;;8.60;99.90;;;;;;5005997;28;20403;-78
2022/04/29 04:53:27;;;;;;;8.13;2.88;;;8.60;99.90;;;;;;5006640;28;20411;-78
2022/04/29 04:55:53;;;;;;;6.80;2.20;;;8.60;99.90;;;;;;5006383;28;20409;-78
2022/04/29 04:58:18;;;;;;;7.60;2.22;;;8.60;99.90;;;;;;5005081;28;20443;-78
2022/04/29 05:00:44;;;;;;;6.07;2.20;;;8.70;99.90;;;;;;5005800;28;20420;-78
2022/04/29 05:03:09;;;;;;;6.43;1.52;;;8.70;99.90;;;;;;4988858;28;20471;-78
2022/04/29 05:05:35;;;;;;;6.80;1.80;;;8.70;99.90;;;;;;5062344;28;20982;-78
2022/04/29 05:08:01;;;;;;;4.88;1.50;;;8.80;99.90;;;;;;5087911;28;21109;-78
2022/04/29 05:10:26;;;;;;;5.90;1.50;;;8.80;99.90;;;;;;5087136;28;20895;-78
2022/04/29 05:12:52;;;;;;;5.90;1.50;;;8.80;99.90;;;;;;5088911;28;20433;-78
2022/04/29 05:15:17;;;;;;;7.03;1.60;;;8.90;99.90;;;;;;5088966;28;20402;-78
2022/04/29 05:17:44;;;;;;;6.90;1.40;;;9.00;99.90;;;;;;5087440;28;20448;-78
2022/04/29 05:20:11;;;;;;;5.70;1.42;;;8.90;99.90;;;;;;5087347;28;21037;-78
2022/04/29 05:22:37;;;;;;;7.05;1.50;;;9.00;99.90;;;;;;5087461;28;20438;-78
2022/04/29 05:25:04;;;;;;;7.55;1.50;;;9.00;99.90;;;;;;5087460;28;20422;-78
2022/04/29 05:27:30;;;;;;;5.30;1.27;;;9.10;99.90;;;;;;5087487;28;20414;-78
2022/04/29 05:29:57;;;;;;;5.32;1.20;;;9.10;99.90;;;;;;5088263;28;20402;-78
2022/04/29 05:32:23;;;;;;;5.90;1.27;;;9.20;99.90;;;;;;5086956;28;20406;-78
2022/04/29 05:34:50;;;;;;;5.32;1.45;;;9.20;99.90;;;;;;5070712;28;20398;-78
2022/04/29 05:37:16;;;;;;;6.78;1.30;;;9.30;99.90;;;;;;5088442;28;20756;-78
2022/04/29 05:42:26;;;;;;;5.82;1.20;;;9.40;99.90;;;;;;5088227;28;20493;-78
2022/04/29 05:44:53;;;;;;;6.68;1.17;;;9.50;99.90;;;;;;5088193;28;20481;-78
2022/04/29 05:47:18;;;;;;;4.60;1.02;;;9.60;99.90;;;;;;5088207;28;20802;-78
2022/04/29 05:49:44;;;;;;;6.90;1.30;;;9.60;99.90;;;;;;5086803;28;20407;-78
2022/04/29 05:52:10;;;;;;;6.63;1.45;;;9.70;99.90;;;;;;5086492;28;20440;-78
2022/04/29 05:54:36;;;;;;;4.20;1.20;;;9.70;99.90;;;;;;4993300;28;20514;-77
2022/04/29 05:57:03;;;;;;;5.72;1.48;;;9.70;99.90;;;;;;4980724;28;20758;-77
2022/04/29 05:59:30;;;;;;;6.80;1.30;;;9.80;99.90;;;;;;4986089;28;20427;-79
2022/04/29 06:01:56;;;;;;;7.07;1.70;;;9.80;99.90;;;;;;4985514;28;20788;-79
2022/04/29 06:04:22;;;;;;;5.20;1.40;;;9.80;99.90;;;;;;4988454;28;20409;-79
2022/04/29 06:06:48;;;;;;;5.43;1.60;;;9.80;99.90;;;;;;5003961;28;20441;-80
2022/04/29 06:09:14;;;;;;;5.68;1.50;;;9.80;99.90;;;;;;5004556;28;20428;-79
2022/04/29 06:11:40;;;;;;;4.57;1.38;;;9.80;99.90;;;;;;5004379;28;20797;-79
2022/04/29 06:14:05;;;;;;;4.63;1.33;;;9.80;99.90;;;;;;5004189;28;20405;-79
2022/04/29 06:16:31;;;;;;;6.85;1.50;;;9.90;99.90;;;;;;5003996;28;20456;-79
2022/04/29 06:18:57;;;;;;;4.88;1.10;;;9.80;99.90;;;;;;5055940;28;20449;-80
2022/04/29 06:21:22;;;;;;;5.60;1.57;;;9.80;99.90;;;;;;5031635;28;20443;-79
2022/04/29 06:23:49;;;;;;;6.43;1.25;;;9.80;99.90;;;;;;5053450;28;20466;-79
2022/04/29 06:26:15;;;;;;;4.35;1.15;;;9.80;99.90;;;;;;5069926;28;20404;-80
2022/04/29 06:28:41;;;;;;;6.50;1.25;;;9.80;99.90;;;;;;4993324;28;20511;-79
2022/04/29 06:31:07;;;;;;;3.50;1.20;;;9.80;99.90;;;;;;4985321;28;20399;-79
2022/04/29 06:33:34;;;;;;;5.72;1.35;;;9.80;99.90;;;;;;4984293;28;20406;-79
2022/04/29 06:36:01;;;;;;;5.45;1.40;;;9.80;99.90;;;;;;5010370;28;20904;-79
2022/04/29 06:38:27;;;;;;;5.63;1.33;;;9.80;99.90;;;;;;5086367;28;20471;-79
2022/04/29 06:40:53;;;;;;;5.93;1.43;;;9.80;99.90;;;;;;5088716;28;20394;-79
2022/04/29 06:43:20;;;;;;;4.43;1.30;;;9.80;99.90;;;;;;5073818;28;20918;-79
2022/04/29 06:45:46;;;;;;;6.35;1.05;;;9.90;99.90;;;;;;5091228;28;20402;-80
2022/04/29 06:48:11;;;;;;;4.68;1.10;;;9.90;99.90;;;;;;5090472;28;20406;-79
2022/04/29 06:50:37;;;;;;;3.67;0.95;;;10.00;99.90;;;;;;5090002;28;20398;-79
2022/04/29 06:53:03;;;;;;;4.83;1.07;;;10.00;99.90;;;;;;5049231;28;20407;-79
2022/04/29 06:55:28;;;;;;;5.03;1.40;;;10.00;99.90;;;;;;4988698;28;20417;-79
2022/04/29 06:57:54;;;;;;;6.05;1.23;;;10.00;99.90;;;;;;4988085;28;20402;-79
2022/04/29 07:00:20;;;;;;;4.00;1.17;;;10.00;99.90;;;;;;4987164;28;20444;-79
2022/04/29 07:02:46;;;;;;;6.25;1.30;;;10.00;99.90;;;;;;4987237;28;20439;-80
2022/04/29 07:05:12;;;;;;;5.07;1.23;;;10.00;99.90;;;;;;4988560;28;20406;-79
2022/04/29 07:07:38;;;;;;;5.40;1.10;;;10.00;99.90;;;;;;4988607;28;20414;-80
2022/04/29 07:10:04;;;;;;;4.47;1.10;;;10.00;99.90;;;;;;4988029;28;20410;-79
2022/04/29 07:12:33;;;;;;;7.70;1.10;;;10.10;99.90;;;;;;4986671;28;20418;-79
2022/04/29 07:14:59;;;;;;;2.83;0.85;;;10.20;99.90;;;;;;4987239;28;20417;-79
2022/04/29 07:17:25;;;;;;;4.28;0.85;;;10.40;99.90;;;;;;4988222;28;20431;-79
2022/04/29 07:19:52;;;;;;;4.18;1.00;;;10.50;99.90;;;;;;4988194;28;20430;-79
2022/04/29 07:22:18;;;;;;;3.60;0.80;;;10.60;99.90;;;;;;4971251;28;20860;-80
2022/04/29 07:24:44;;;;;;;5.05;1.10;;;10.70;99.90;;;;;;4987757;28;20837;-80
2022/04/29 07:27:12;;;;;;;2.97;0.80;;;10.80;99.90;;;;;;5028648;28;20511;-79
2022/04/29 07:29:37;;;;;;;4.78;1.00;;;10.90;99.90;;;;;;5089565;28;20915;-80
2022/04/29 07:32:03;;;;;;;6.80;1.00;;;11.00;99.90;;;;;;5089699;28;20394;-79
2022/04/29 07:42:41;;;;;;;4.63;0.90;;;11.20;99.90;;;;;;5090547;28;20409;-79
2022/04/29 07:45:07;;;;;;;5.22;1.17;;;11.40;99.90;;;;;;5090588;28;20775;-80
2022/04/29 07:47:36;;;;;;;4.00;1.02;;;11.40;99.80;;;;;;5089959;28;20479;-79
2022/04/29 07:50:03;;;;;;;4.75;0.80;;;11.40;99.70;;;;;;5089035;28;20911;-79
2022/04/29 07:52:28;;;;;;;4.13;1.00;;;11.40;99.60;;;;;;5071409;28;20414;-79
2022/04/29 07:54:54;;;;;;;5.50;1.10;;;11.30;99.60;;;;;;5072400;28;20413;-79
2022/04/29 07:57:19;;;;;;;3.83;0.83;;;11.20;99.50;;;;;;5072661;28;20410;-79
2022/04/29 07:59:45;;;;;;;4.60;1.00;;;11.10;99.70;;;;;;5090060;28;20776;-79
2022/04/29 08:02:10;;;;;;;3.13;1.00;;;11.10;99.90;;;;;;5089947;28;20466;-80
2022/04/29 08:04:36;;;;;;;2.80;0.70;;;11.00;99.80;;;;;;5071859;28;20410;-80
2022/04/29 08:07:02;;;;;;;4.60;0.87;;;11.00;99.60;;;;;;5106164;28;20409;-79
2022/04/29 08:09:28;;;;;;;4.57;0.80;;;10.90;99.60;;;;;;5088894;28;20946;-79
2022/04/29 08:11:53;;;;;;;4.90;1.07;;;10.90;99.60;;;;;;5071827;28;20440;-79
2022/04/29 08:14:20;;;;;;;5.18;1.02;;;10.90;99.70;;;;;;5089933;28;20430;-79
2022/04/29 08:16:46;;;;;;;4.30;0.73;;;10.90;99.90;;;;;;5088872;28;20406;-79
2022/04/29 08:19:13;;;;;;;3.93;1.10;;;11.00;99.90;;;;;;5105644;28;20480;-78
2022/04/29 08:21:38;;;;;;;4.75;1.10;;;10.90;99.90;;;;;;5090087;28;20459;-79
2022/04/29 08:24:04;;;;;;;3.83;1.07;;;10.90;99.90;;;;;;5088478;28;20837;-79
2022/04/29 08:26:30;;;;;;;4.07;1.20;;;10.80;99.90;;;;;;5088651;28;20398;-79
2022/04/29 08:28:56;;;;;;;6.57;1.43;;;10.80;99.90;;;;;;4988208;28;20450;-79
2022/04/29 08:31:22;;;;;;;7.38;1.48;;;10.80;99.90;;;;;;4987118;28;20483;-79
2022/04/29 08:33:48;;;;;;;5.25;1.40;;;10.80;99.90;;;;;;4970363;28;20493;-80
2022/04/29 08:36:15;;;;;;;5.75;1.50;;;10.80;99.90;;;;;;4992204;28;20405;-79
2022/04/29 08:38:41;;;;;;;2.58;1.05;;;10.80;99.90;;;;;;5005304;28;20504;-79
2022/04/29 08:41:08;;;;;;;7.22;1.48;;;10.90;99.90;;;;;;5005641;28;20420;-79
2022/04/29 08:43:34;;;;;;;4.00;1.20;;;10.90;99.90;;;;;;5005564;28;20983;-79
2022/04/29 08:46:01;;;;;;;4.27;1.30;;;10.90;99.90;;;;;;5071128;28;20397;-79
2022/04/29 08:48:30;;;;;;;5.88;1.38;;;10.90;99.90;;;;;;5087823;28;20947;-79
2022/04/29 08:50:59;;;;;;;6.35;1.30;;;10.90;99.90;;;;;;5071330;28;20907;-79
2022/04/29 08:53:25;;;;;;;2.85;1.05;;;11.00;99.90;;;;;;5089329;28;20402;-80
2022/04/29 08:58:37;;;;;;;5.35;1.63;;;11.00;99.60;;;;;;5088563;28;20430;-79
2022/04/29 09:01:15;;;;;;;6.25;1.52;;;11.10;99.70;;;;;;5087946;28;20406;-79
2022/04/29 09:03:44;;;;;;;4.15;1.20;;;11.20;99.40;;;;;;4966861;28;20413;-79
2022/04/29 09:06:09;;;;;;;5.22;1.17;;;11.20;98.60;;;;;;5050202;28;20428;-79
2022/04/29 09:08:40;;;;;;;7.33;1.50;;;11.20;98.90;;;;;;4967651;28;20416;-79
2022/04/29 09:11:06;;;;;;;5.28;1.42;;;11.30;99.30;;;;;;4967297;28;20416;-79
2022/04/29 09:13:35;;;;;;;4.00;1.48;;;11.40;98.60;;;;;;4967472;28;20451;-79
2022/04/29 09:16:10;;;;;;;5.32;1.67;;;11.40;98.60;;;;;;4965814;28;20417;-79
2022/04/29 09:18:40;;;;;;;5.03;1.60;;;11.40;98.70;;;;;;4966803;28;20436;-79
2022/04/29 09:21:11;;;;;;;5.03;1.50;;;11.40;98.60;;;;;;4965664;28;20898;-79
2022/04/29 09:23:39;;;;;;;5.82;1.70;;;11.40;98.60;;;;;;4966354;28;20833;-80
2022/04/29 09:26:06;;;;;;;5.05;1.48;;;11.30;98.50;;;;;;4964538;28;20424;-79
2022/04/29 09:28:35;;;;;;;3.25;1.55;;;11.30;98.40;;;;;;5066116;28;20982;-79
2022/04/29 09:31:02;;;;;;;4.40;1.55;;;11.30;98.40;;;;;;4965101;28;20416;-79
2022/04/29 09:33:32;;;;;;;3.83;1.50;;;11.30;98.20;;;;;;4965809;28;20412;-79
2022/04/29 09:35:58;;;;;;;6.88;1.77;;;11.30;97.90;;;;;;4976715;28;20533;-79
2022/04/29 09:41:07;;;;;;;4.07;1.50;;;11.20;98.20;;;;;;5005909;28;20405;-79
2022/04/29 09:43:39;;;;;;;3.72;1.60;;;11.30;98.40;;;;;;5107528;27;20428;-79
2022/04/29 09:46:15;;;;;;;3.78;1.42;;;11.30;98.20;;;;;;5004652;28;20911;-79
2022/04/29 09:49:06;;;;;;;5.13;1.80;;;11.30;98.00;;;;;;5005321;28;20819;-79
2022/04/29 09:51:48;;;;;;;5.07;1.40;;;11.40;98.20;;;;;;5005317;28;20774;-79
2022/04/29 09:54:21;;;;;;;6.00;1.60;;;11.40;98.10;;;;;;5004310;28;20405;-79
2022/04/29 09:57:11;;;;;;;5.50;1.55;;;11.40;97.60;;;;;;5004410;28;20462;-79
2022/04/29 09:59:38;;;;;;;5.18;1.70;;;11.40;97.80;;;;;;5004358;28;20516;-79
2022/04/29 10:02:05;;;;;;;5.13;1.67;;;11.50;97.80;;;;;;5005480;28;20480;-79
2022/04/29 10:04:34;;;;;;;6.50;1.60;;;11.50;97.80;;;;;;5005434;28;20417;-80
2022/04/29 10:07:04;;;;;;;4.65;1.50;;;11.50;97.80;;;;;;5005194;28;20496;-79
2022/04/29 10:09:32;;;;;;;5.85;1.77;;;11.60;97.90;;;;;;4987737;28;20455;-79
2022/04/29 10:12:00;;;;;;;4.28;1.60;;;11.60;97.90;;;;;;5005245;28;20413;-79
2022/04/29 10:14:28;;;;;;;5.40;1.52;;;11.60;97.80;;;;;;5004587;28;20416;-77
2022/04/29 10:22:34;;;;;;;3.80;1.20;;;11.60;97.30;;;;;;5002661;28;20513;-79
2022/04/29 10:25:04;;;;;;;5.70;1.53;;;11.60;97.30;;;;;;4986916;28;20406;-79
2022/04/29 10:27:31;;;;;;;3.72;1.23;;;11.50;96.80;;;;;;5003054;28;20500;-79
2022/04/29 10:29:57;;;;;;;4.43;1.40;;;11.50;97.10;;;;;;5004386;28;20889;-79
2022/04/29 10:32:22;;;;;;;5.50;1.63;;;11.50;96.60;;;;;;5004053;28;20412;-79
2022/04/29 10:34:49;;;;;;;3.63;1.42;;;11.40;96.60;;;;;;5003999;28;21145;-79
2022/04/29 10:37:15;;;;;;;4.37;1.57;;;11.40;96.70;;;;;;5068839;28;21024;-79
2022/04/29 10:39:42;;;;;;;5.50;1.55;;;11.30;96.80;;;;;;5085271;28;20422;-79
2022/04/29 10:42:11;;;;;;;3.72;1.42;;;11.30;96.30;;;;;;5086930;28;20395;-79
2022/04/29 10:45:00;;;;;;;5.78;1.60;;;11.30;96.30;;;;;;5085459;28;20476;-79
2022/04/29 10:47:36;;;;;;;4.43;1.52;;;11.20;96.20;;;;;;5085692;28;20452;-79
2022/04/29 10:50:31;;;;;;;6.07;1.40;;;11.30;96.50;;;;;;5085742;28;20800;-79
2022/04/29 10:53:04;;;;;;;7.47;1.60;;;11.30;95.90;;;;;;5086416;28;20402;-79
2022/04/29 10:55:31;;;;;;;4.15;1.40;;;11.30;96.00;;;;;;5086055;28;20405;-79
2022/04/29 10:58:00;;;;;;;4.68;1.35;;;11.40;96.00;;;;;;5087303;28;20415;-79
2022/04/29 11:00:28;;;;;;;3.17;1.27;;;11.40;95.90;;;;;;5069712;28;20398;-79
2022/04/29 11:02:54;;;;;;;4.47;1.67;;;11.50;95.90;;;;;;5087667;28;20404;-79
2022/04/29 11:05:39;;;;;;;5.95;1.30;;;11.60;95.60;;;;;;5086408;28;20436;-79
2022/04/29 11:08:08;;;;;;;4.80;1.60;;;11.60;95.60;;;;;;5085871;28;20413;-79
2022/04/29 11:10:53;;;;;;;4.73;1.50;;;11.70;95.60;;;;;;5103380;28;20410;-79
2022/04/29 11:13:26;;;;;;;4.72;1.40;;;11.70;95.20;;;;;;5087415;28;20767;-79
2022/04/29 11:15:52;;;;;;;3.70;1.42;;;11.70;94.80;;;;;;5087154;28;20502;-79
2022/04/29 11:18:26;;;;;;;4.93;1.20;;;11.70;95.40;;;;;;5087322;28;20445;-80
2022/04/29 11:20:57;;;;;;;5.25;1.13;;;11.90;94.80;;;;;;5085956;28;20476;-79
2022/04/29 11:26:15;;;;;;;4.30;1.30;;;11.90;94.30;;;;;;5086227;28;20474;-79
2022/04/29 11:28:41;;;;;;;5.33;1.40;;;12.00;93.80;;;;;;5088037;28;20504;-79
2022/04/29 11:31:08;;;;;;;5.85;1.40;;;12.10;94.20;;;;;;5089529;28;20438;-79
2022/04/29 11:33:35;;;;;;;3.97;1.10;;;12.10;94.00;;;;;;5089715;28;20444;-79
2022/04/29 11:36:12;;;;;;;4.05;1.35;;;12.20;93.30;;;;;;5065536;28;20417;-79
2022/04/29 11:38:48;;;;;;;4.53;1.30;;;12.20;93.70;;;;;;5006259;28;20425;-80
2022/04/29 11:41:22;;;;;;;4.13;1.10;;;12.10;93.60;;;;;;5007592;28;20770;-79
2022/04/29 11:43:49;;;;;;;4.38;1.20;;;12.10;94.00;;;;;;5005942;28;20413;-79
2022/04/29 11:46:15;;;;;;;3.30;1.05;;;12.10;94.00;;;;;;5006666;28;20477;-79
2022/04/29 11:48:58;;;;;;;4.63;1.10;;;12.20;94.30;;;;;;5007619;28;20922;-79
2022/04/29 11:51:30;;;;;;;5.18;1.27;;;12.20;93.80;;;;;;5006597;28;20472;-79
2022/04/29 11:54:04;;;;;;;5.65;1.23;;;12.20;94.00;;;;;;5007283;28;20409;-79
2022/04/29 11:56:36;;;;;;;3.97;1.02;;;12.40;94.00;;;;;;5007043;28;20452;-79
2022/04/29 11:59:05;;;;;;;6.60;1.30;;;12.50;94.20;;;;;;5007190;28;20760;-79
2022/04/29 12:01:30;;;;;;;4.60;1.00;;;12.50;93.80;;;;;;5007195;28;20409;-79
2022/04/29 12:03:56;;;;;;;5.72;1.30;;;12.60;93.70;;;;;;5007377;28;20416;-80
2022/04/29 12:06:23;;;;;;;4.93;1.13;;;12.60;93.70;;;;;;4990049;28;20424;-79
2022/04/29 12:08:49;;;;;;;5.10;1.38;;;12.60;93.90;;;;;;5006980;28;20401;-79
2022/04/29 12:11:30;;;;;;;3.55;1.10;;;12.70;94.10;;;;;;5006029;28;20429;-79
2022/04/29 12:13:57;;;;;;;4.90;1.40;;;12.80;93.40;;;;;;5006920;28;20520;-79
2022/04/29 12:16:23;;;;;;;3.58;1.10;;;12.80;92.90;;;;;;5005857;28;20475;-79
2022/04/29 12:18:50;;;;;;;3.37;1.07;;;12.80;92.90;;;;;;5005843;28;20793;-79
2022/04/29 12:21:25;;;;;;;3.87;1.00;;;13.00;92.90;;;;;;5006396;28;20409;-79
2022/04/29 12:23:54;;;;;;;3.22;0.95;;;13.10;92.20;;;;;;5007029;28;20928;-80
2022/04/29 12:26:20;;;;;;;3.20;1.00;;;13.10;91.80;;;;;;5006874;28;20967;-80
2022/04/29 12:28:56;;;;;;;3.83;1.20;;;13.20;91.80;;;;;;5005789;28;20416;-80
2022/04/29 12:36:57;;;;;;;4.20;1.10;;;13.30;91.30;;;;;;5058791;28;20407;-79
2022/04/29 12:39:43;;;;;;;3.22;0.95;;;13.30;91.60;;;;;;5088914;28;20426;-79
2022/04/29 12:42:11;;;;;;;4.15;1.08;;;13.30;91.10;;;;;;5087962;28;20399;-79
2022/04/29 12:45:07;;;;;;;4.95;1.10;;;13.20;91.10;;;;;;5088195;28;20722;-80
2022/04/29 12:47:53;;;;;;;4.55;1.00;;;13.20;91.50;;;;;;5089456;28;20409;-79
2022/04/29 12:50:26;;;;;;;4.45;1.27;;;13.20;91.70;;;;;;5089469;28;20402;-80
2022/04/29 12:52:54;;;;;;;4.90;1.10;;;13.30;92.10;;;;;;5089347;28;20752;-80
2022/04/29 12:55:21;;;;;;;3.75;1.30;;;13.40;92.00;;;;;;5089488;28;20500;-80
2022/04/29 12:57:47;;;;;;;4.20;1.08;;;13.50;91.80;;;;;;5088633;28;20473;-80
2022/04/29 13:00:25;;;;;;;4.73;1.30;;;13.60;91.40;;;;;;5087845;28;20948;-79
2022/04/29 13:03:04;;;;;;;3.53;1.00;;;13.60;91.50;;;;;;5087804;28;20417;-79
2022/04/29 13:05:31;;;;;;;3.30;1.30;;;13.50;91.30;;;;;;5087458;28;20406;-79
2022/04/29 13:07:57;;;;;;;3.88;1.20;;;13.40;91.80;;;;;;5087644;28;20910;-79
2022/04/29 13:10:23;;;;;;;3.67;1.00;;;13.50;91.20;;;;;;5089211;28;20420;-79
2022/04/29 13:12:49;;;;;;;3.67;1.20;;;13.50;90.90;;;;;;5087566;28;20406;-80
2022/04/29 13:15:15;;;;;;;3.70;1.20;;;13.50;91.20;;;;;;5087643;28;20399;-79
2022/04/29 13:17:41;;;;;;;4.32;1.30;;;13.50;91.40;;;;;;5088984;28;20442;-80
2022/04/29 13:20:08;;;;;;;5.27;1.43;;;13.60;91.60;;;;;;5070391;28;20464;-80
2022/04/29 13:22:38;;;;;;;4.22;1.10;;;13.70;91.30;;;;;;5087198;28;20437;-80
2022/04/29 13:25:08;;;;;;;4.55;1.10;;;13.70;91.50;;;;;;5087258;28;20402;-79
2022/04/29 13:27:34;;;;;;;3.58;1.30;;;13.70;91.30;;;;;;5087145;28;20415;-80
2022/04/29 13:30:09;;;;;;;3.25;1.23;;;13.70;91.40;;;;;;5070320;28;20417;-80
2022/04/29 13:32:35;;;;;;;4.55;1.40;;;13.60;91.40;;;;;;5087399;28;20394;-79